Sitka, AK

10:01 AM AKDT on April 18, 2015 (GMT -0800)
Hoonah | | Change Station
CLOSE
Current Station
Airport
Location: Hoonah,
Elevation: 0 ft
Nearby Weather Stations

Elev 0 ft 58.11 °N, 135.45 °W | Updated 5 minutes ago

Overcast
Overcast
43 °F
Feels Like 38 °F
N
8
Wind Variable Wind from ESE

Today
High -- | Low -- °F
--% Chance of Precip.
Yesterday
High -- | Low -- °F
Precip. -- in
5:45 AM 8:17 PM
Waning Crescent, 0% visible
Pressure 30.36 in
Visibility 10.0 miles
Clouds Mostly Cloudy 2700 ft
Overcast 3400 ft
Windchill 38 °F
Dew Point 37 °F
Humidity 81%
Rainfall 0.00 in
Snow Depth Not available.
UV 1 out of 12
Pollen Not available.
Air Quality Not available.
Flu Activity Sporadic
METAR PAOH 181756Z AUTO 11007KT 10SM BKN027 OVC034 06/03 A3036 RMK AO2

More Conditions Fewer Conditions

Pressure 30.36 in
Visibility 10.0 miles
Clouds Mostly Cloudy 2700 ft
Overcast 3400 ft
Windchill 38 °F
Dew Point 37 °F
Humidity 81%
Rainfall 0.00 in
Snow Depth Not available.
UV 1 out of 12
Pollen Not available.
Air Quality Not available.
Flu Activity Sporadic
METAR PAOH 181756Z AUTO 11007KT 10SM BKN027 OVC034 06/03 A3036 RMK AO2

More Conditions Fewer Conditions

10-Day Weather Forecast

Almanac

Astronomy

Apr. 18, 2015 Rise Set
Actual Time
Civil Twilight
Nautical Twilight
Astronomical Twilight
Moon
Length of Visible Light
Length of Day
Tomorrow will be .
, % of the Moon is Illuminated

Today's Extremes

State Highs State Lows

Community

WunderPhotos

Upload Photos

1,814,472 photos uploaded!

WunderBlogs® & News

Nearby

Air Quality

  Air Quality AQ Index Pollutant
Not available.

Snow Depth

Station Depth Elevation

Earthquake Activity

City Distance Mag. Time & Date
Minimum magnitude displayed is 2.5.

Coastal Water Temperatures

Place Temperature

Stations

Nearby Weather Stations

Station Location Temp. Windchill Dew Point Humidity Wind Precip. Elev Updated Type